createdAt,value
2023-05-10T00:01:43.738Z,100708.78
2023-05-10T00:04:11.681Z,100707.94
2023-05-10T00:06:40.039Z,100707.72
2023-05-10T00:09:10.119Z,100704.75
2023-05-10T00:11:38.044Z,100702.16
2023-05-10T00:14:08.480Z,100699.63
2023-05-10T00:16:36.474Z,100700.78
2023-05-10T00:19:04.578Z,100704.97
2023-05-10T00:21:33.222Z,100692.34
2023-05-10T00:24:01.180Z,100697.00
2023-05-10T00:26:30.478Z,100695.22
2023-05-10T00:28:59.509Z,100691.47
2023-05-10T00:31:27.528Z,100688.69
2023-05-10T00:33:55.552Z,100681.13
2023-05-10T00:36:23.428Z,100684.91
2023-05-10T00:38:51.383Z,100682.75
2023-05-10T00:41:19.530Z,100670.31
2023-05-10T00:43:50.783Z,100671.09
2023-05-10T00:46:18.820Z,100668.00
2023-05-10T00:48:47.082Z,100666.47
2023-05-10T00:51:15.716Z,100669.72
2023-05-10T00:53:44.466Z,100662.00
2023-05-10T00:56:12.497Z,100659.38
2023-05-10T00:58:40.632Z,100656.16
2023-05-10T01:01:11.007Z,100657.50
2023-05-10T01:03:39.510Z,100648.25
2023-05-10T01:06:08.075Z,100650.91
2023-05-10T01:08:36.216Z,100653.41
2023-05-10T01:11:04.277Z,100652.97
2023-05-10T01:13:35.240Z,100641.59
2023-05-10T01:16:04.238Z,100644.47
2023-05-10T01:18:36.583Z,100642.06
2023-05-10T01:21:15.487Z,100632.84
2023-05-10T01:24:06.988Z,100634.03
2023-05-10T01:27:13.504Z,100634.53
2023-05-10T01:30:17.063Z,100629.34
2023-05-10T01:32:51.365Z,100629.63
2023-05-10T01:35:25.076Z,100630.22
2023-05-10T01:38:06.481Z,100624.94
2023-05-10T01:40:39.628Z,100620.28
2023-05-10T01:43:21.720Z,100625.69
2023-05-10T01:46:12.034Z,100625.19
2023-05-10T01:48:49.397Z,100626.97
2023-05-10T01:51:21.782Z,100627.34
2023-05-10T01:53:50.736Z,100618.13
2023-05-10T01:56:22.267Z,100615.63
2023-05-10T01:58:51.907Z,100622.81
2023-05-10T02:01:21.484Z,100617.88
2023-05-10T02:03:52.787Z,100621.38
2023-05-10T02:06:22.780Z,100616.94
2023-05-10T02:08:53.516Z,100614.53
2023-05-10T02:11:22.985Z,100621.72
2023-05-10T02:13:53.912Z,100619.31
2023-05-10T02:16:31.596Z,100618.84
2023-05-10T02:19:03.359Z,100624.69
2023-05-10T02:21:33.728Z,100617.28
2023-05-10T02:24:05.551Z,100606.16
2023-05-10T02:26:34.879Z,100609.50
2023-05-10T02:29:05.117Z,100611.53
2023-05-10T02:31:34.982Z,100603.56
2023-05-10T02:34:06.422Z,100608.53
2023-05-10T02:36:35.228Z,100603.88
2023-05-10T02:39:04.362Z,100612.56
2023-05-10T02:41:34.748Z,100607.47
2023-05-10T02:44:04.743Z,100605.38
2023-05-10T02:46:32.981Z,100601.06
2023-05-10T02:49:01.112Z,100600.94
2023-05-10T02:51:34.530Z,100605.91
2023-05-10T02:54:11.390Z,100600.22
2023-05-10T02:56:44.478Z,100606.19
2023-05-10T02:59:12.411Z,100606.41
2023-05-10T03:01:40.637Z,100604.97
2023-05-10T03:04:08.713Z,100599.38
2023-05-10T03:06:38.798Z,100601.56
2023-05-10T03:09:08.762Z,100599.72
2023-05-10T03:11:50.393Z,100601.13
2023-05-10T03:14:30.863Z,100601.22
2023-05-10T03:17:06.131Z,100606.59
2023-05-10T03:19:42.009Z,100594.25
2023-05-10T03:22:13.087Z,100595.59
2023-05-10T03:24:43.176Z,100596.63
2023-05-10T03:27:12.484Z,100594.66
2023-05-10T03:29:41.593Z,100598.19
2023-05-10T03:32:09.686Z,100597.03
2023-05-10T03:34:43.717Z,100596.94
2023-05-10T03:37:13.919Z,100599.06
2023-05-10T03:39:42.571Z,100597.03
2023-05-10T03:42:12.970Z,100599.56
2023-05-10T03:44:41.353Z,100588.59
2023-05-10T03:47:10.522Z,100592.53
2023-05-10T03:49:38.546Z,100579.50
2023-05-10T03:52:07.511Z,100594.66
2023-05-10T03:54:38.241Z,100586.13
2023-05-10T03:57:06.862Z,100588.66
2023-05-10T03:59:34.820Z,100587.94
2023-05-10T04:02:02.864Z,100591.44
2023-05-10T04:04:31.535Z,100591.78
2023-05-10T04:07:00.135Z,100593.66
2023-05-10T04:09:28.030Z,100594.63
2023-05-10T04:11:57.266Z,100591.19
2023-05-10T04:14:25.558Z,100593.94
2023-05-10T04:16:53.617Z,100579.22
2023-05-10T04:19:21.628Z,100587.34
2023-05-10T04:21:49.553Z,100582.94
2023-05-10T04:24:17.406Z,100584.81
2023-05-10T04:26:45.390Z,100583.47
2023-05-10T04:29:14.646Z,100576.09
2023-05-10T04:31:42.648Z,100588.97
2023-05-10T04:34:10.573Z,100585.81
2023-05-10T04:36:38.453Z,100579.69
2023-05-10T04:39:06.604Z,100583.31
2023-05-10T04:41:34.518Z,100581.78
2023-05-10T04:44:02.546Z,100575.66
2023-05-10T04:46:31.997Z,100580.69
2023-05-10T04:49:00.046Z,100581.41
2023-05-10T04:51:27.927Z,100578.28
2023-05-10T04:54:05.424Z,100579.84
2023-05-10T04:56:34.829Z,100573.25
2023-05-10T04:59:02.766Z,100572.06
2023-05-10T05:01:32.308Z,100572.53
2023-05-10T05:04:00.725Z,100570.25
2023-05-10T05:06:28.744Z,100576.72
2023-05-10T05:08:56.710Z,100571.31
2023-05-10T05:11:24.652Z,100577.38
2023-05-10T05:13:52.554Z,100578.66
2023-05-10T05:16:22.546Z,100570.38
2023-05-10T05:18:52.005Z,100578.75
2023-05-10T05:21:21.330Z,100568.66
2023-05-10T05:23:49.298Z,100569.22
2023-05-10T05:26:17.280Z,100570.38
2023-05-10T05:28:45.257Z,100566.41
2023-05-10T05:31:13.229Z,100568.38
2023-05-10T05:33:41.323Z,100575.31
2023-05-10T05:36:11.675Z,100572.31
2023-05-10T05:38:39.581Z,100570.81
2023-05-10T05:41:07.551Z,100562.94
2023-05-10T05:43:38.048Z,100571.06
2023-05-10T05:46:06.734Z,100567.16
2023-05-10T05:48:34.781Z,100568.22
2023-05-10T05:51:02.844Z,100558.66
2023-05-10T05:53:33.344Z,100557.28
2023-05-10T05:56:01.244Z,100561.53
2023-05-10T05:58:29.670Z,100554.38
2023-05-10T06:00:58.249Z,100553.66
2023-05-10T06:03:26.455Z,100553.09
2023-05-10T06:05:54.619Z,100559.56
2023-05-10T06:08:22.548Z,100555.81
2023-05-10T06:10:51.942Z,100557.38
2023-05-10T06:13:19.964Z,100557.78
2023-05-10T06:15:47.873Z,100556.41
2023-05-10T06:18:15.838Z,100565.19
2023-05-10T06:20:44.060Z,100562.94
2023-05-10T06:23:12.097Z,100562.94
2023-05-10T06:25:40.106Z,100562.47
2023-05-10T06:28:09.484Z,100558.00
2023-05-10T06:30:39.009Z,100557.16
2023-05-10T06:33:07.022Z,100562.31
2023-05-10T06:35:35.050Z,100567.59
2023-05-10T06:38:03.017Z,100557.25
2023-05-10T06:40:30.940Z,100564.59
2023-05-10T06:42:58.851Z,100568.63
2023-05-10T06:45:28.242Z,100564.72
2023-05-10T06:47:56.325Z,100560.78
2023-05-10T06:50:24.234Z,100561.91
2023-05-10T06:52:53.187Z,100559.22
2023-05-10T06:55:21.374Z,100561.88
2023-05-10T06:57:49.515Z,100556.28
2023-05-10T07:00:18.745Z,100553.03
2023-05-10T07:02:49.472Z,100567.53
2023-05-10T07:05:17.760Z,100564.72
2023-05-10T07:07:45.945Z,100559.28
2023-05-10T07:10:14.288Z,100559.22
2023-05-10T07:12:42.472Z,100555.16
2023-05-10T07:15:11.289Z,100546.75
2023-05-10T07:17:39.286Z,100543.63
2023-05-10T07:20:10.759Z,100544.31
2023-05-10T07:22:38.676Z,100550.69
2023-05-10T07:25:07.550Z,100543.50
2023-05-10T07:27:35.551Z,100551.38
2023-05-10T07:30:03.543Z,100543.88
2023-05-10T07:32:32.747Z,100548.72
2023-05-10T07:35:01.095Z,100547.13
2023-05-10T07:37:31.319Z,100553.97
2023-05-10T07:39:59.239Z,100556.13
2023-05-10T07:42:27.160Z,100555.69
2023-05-10T07:44:55.186Z,100554.47
2023-05-10T07:47:23.183Z,100555.97
2023-05-10T07:49:51.257Z,100540.97
2023-05-10T07:52:21.212Z,100551.50
2023-05-10T07:54:51.844Z,100549.00
2023-05-10T07:57:20.037Z,100548.59
2023-05-10T07:59:48.457Z,100541.66
2023-05-10T08:02:16.535Z,100541.66
2023-05-10T08:04:44.483Z,100544.41
2023-05-10T08:07:12.733Z,100550.06
2023-05-10T08:09:40.705Z,100542.28
2023-05-10T08:12:10.031Z,100545.47
2023-05-10T08:14:38.651Z,100544.91
2023-05-10T08:17:09.146Z,100551.34
2023-05-10T08:19:37.314Z,100544.56
2023-05-10T08:22:06.557Z,100541.44
2023-05-10T08:24:35.713Z,100540.28
2023-05-10T08:27:04.008Z,100544.28
2023-05-10T08:32:06.766Z,100535.50
2023-05-10T08:34:34.830Z,100544.72
2023-05-10T08:37:02.787Z,100533.94
2023-05-10T08:39:32.342Z,100534.59
2023-05-10T08:42:04.410Z,100535.78
2023-05-10T08:44:34.689Z,100546.94
2023-05-10T08:47:06.186Z,100542.63
2023-05-10T08:49:35.663Z,100540.78
2023-05-10T08:52:06.318Z,100549.28
2023-05-10T08:54:35.075Z,100551.78
2023-05-10T08:57:03.287Z,100544.81
2023-05-10T08:59:32.944Z,100545.31
2023-05-10T09:02:01.754Z,100551.63
2023-05-10T09:04:31.495Z,100537.50
2023-05-10T09:06:59.566Z,100541.66
2023-05-10T09:09:27.856Z,100557.28
2023-05-10T09:11:56.470Z,100549.78
2023-05-10T09:14:26.898Z,100544.63
2023-05-10T09:16:56.410Z,100549.09
2023-05-10T09:19:24.453Z,100548.06
2023-05-10T09:21:52.455Z,100551.56
2023-05-10T09:24:20.387Z,100549.53
2023-05-10T09:26:50.471Z,100550.38
2023-05-10T09:29:18.624Z,100551.53
2023-05-10T09:31:48.764Z,100554.97
2023-05-10T09:34:22.707Z,100560.13
2023-05-10T09:36:55.695Z,100558.97
2023-05-10T09:39:32.730Z,100558.03
2023-05-10T09:42:01.775Z,100558.44
2023-05-10T09:44:29.824Z,100564.25
2023-05-10T09:46:58.018Z,100566.22
2023-05-10T09:49:27.392Z,100567.22
2023-05-10T09:52:05.913Z,100560.59
2023-05-10T09:54:34.869Z,100569.88
2023-05-10T09:57:03.548Z,100564.16
2023-05-10T09:59:32.111Z,100558.72
2023-05-10T10:02:02.122Z,100564.66
2023-05-10T10:04:32.677Z,100568.13
2023-05-10T10:07:01.915Z,100561.25
2023-05-10T10:09:32.450Z,100568.00
2023-05-10T10:12:01.454Z,100558.81
2023-05-10T10:14:29.767Z,100554.38
2023-05-10T10:17:07.606Z,100568.88
2023-05-10T10:19:38.464Z,100563.53
2023-05-10T10:22:06.978Z,100555.25
2023-05-10T10:24:35.198Z,100551.69
2023-05-10T10:27:11.202Z,100562.09
2023-05-10T10:29:46.773Z,100551.31
2023-05-10T10:32:26.711Z,100548.13
2023-05-10T10:34:57.074Z,100550.34
2023-05-10T10:37:25.041Z,100545.88
2023-05-10T10:39:53.025Z,100543.78
2023-05-10T10:42:47.928Z,100547.03
2023-05-10T10:45:16.225Z,100544.75
2023-05-10T10:47:44.866Z,100540.41
2023-05-10T10:50:14.581Z,100555.28
2023-05-10T10:52:42.916Z,100556.50
2023-05-10T10:55:12.645Z,100556.13
2023-05-10T10:57:49.411Z,100563.22
2023-05-10T11:00:23.974Z,100549.03
2023-05-10T11:02:53.697Z,100547.31
2023-05-10T11:05:47.199Z,100543.25
2023-05-10T11:08:20.684Z,100550.84
2023-05-10T11:11:04.376Z,100547.75
2023-05-10T11:13:34.195Z,100553.75
2023-05-10T11:16:13.335Z,100550.13
2023-05-10T11:18:41.903Z,100544.00
2023-05-10T11:21:12.483Z,100542.94
2023-05-10T11:23:51.806Z,100540.00
2023-05-10T11:26:24.261Z,100548.78
2023-05-10T11:28:52.537Z,100555.59
2023-05-10T11:31:21.730Z,100559.75
2023-05-10T11:33:51.503Z,100546.53
2023-05-10T11:36:22.699Z,100551.09
2023-05-10T11:38:51.357Z,100549.25
2023-05-10T11:41:22.739Z,100541.16
2023-05-10T11:43:52.994Z,100536.03
2023-05-10T11:46:22.571Z,100535.41
2023-05-10T11:48:52.557Z,100543.91
2023-05-10T11:51:24.281Z,100543.75
2023-05-10T11:53:53.261Z,100546.06
2023-05-10T11:56:21.867Z,100544.91
2023-05-10T11:58:56.390Z,100542.22
2023-05-10T12:01:24.869Z,100553.56
2023-05-10T12:03:54.813Z,100555.94
2023-05-10T12:06:28.299Z,100545.75
2023-05-10T12:08:56.279Z,100554.91
2023-05-10T12:11:27.388Z,100553.41
2023-05-10T12:13:56.105Z,100557.75
2023-05-10T12:16:25.213Z,100560.34
2023-05-10T12:18:57.417Z,100546.22
2023-05-10T12:21:27.728Z,100554.91
2023-05-10T12:23:57.376Z,100551.78
2023-05-10T12:26:27.350Z,100554.59
2023-05-10T12:28:55.572Z,100556.53
2023-05-10T12:31:23.584Z,100550.59
2023-05-10T12:33:51.497Z,100555.63
2023-05-10T12:36:28.517Z,100544.44
2023-05-10T12:39:05.831Z,100545.22
2023-05-10T12:41:33.819Z,100556.09
2023-05-10T12:44:04.399Z,100562.00
2023-05-10T12:46:32.718Z,100560.09
2023-05-10T12:49:08.631Z,100557.91
2023-05-10T12:51:38.667Z,100562.31
2023-05-10T12:54:06.757Z,100557.28
2023-05-10T12:56:34.719Z,100565.59
2023-05-10T12:59:02.614Z,100560.25
2023-05-10T13:01:30.610Z,100562.75
2023-05-10T13:03:58.561Z,100571.38
2023-05-10T13:06:26.505Z,100565.69
2023-05-10T13:08:55.805Z,100561.31
2023-05-10T13:11:23.818Z,100563.09
2023-05-10T13:13:51.744Z,100570.84
2023-05-10T13:16:19.809Z,100565.06
2023-05-10T13:18:50.114Z,100559.22
2023-05-10T13:21:18.110Z,100556.75
2023-05-10T13:23:48.562Z,100560.66
2023-05-10T13:26:17.907Z,100560.75
2023-05-10T13:28:46.891Z,100549.91
2023-05-10T13:31:14.844Z,100544.94
2023-05-10T13:33:43.187Z,100543.56
2023-05-10T13:36:12.296Z,100544.75
2023-05-10T13:38:40.237Z,100547.31
2023-05-10T13:41:08.278Z,100547.91
2023-05-10T13:43:38.046Z,100536.19
2023-05-10T13:46:06.205Z,100534.81
2023-05-10T13:48:34.860Z,100536.06
2023-05-10T13:51:04.364Z,100532.41
2023-05-10T13:53:32.313Z,100537.78
2023-05-10T13:56:00.213Z,100539.66
2023-05-10T13:58:28.135Z,100530.06
2023-05-10T14:00:58.142Z,100538.31
2023-05-10T14:03:26.429Z,100535.19
2023-05-10T14:05:54.382Z,100544.88
2023-05-10T14:08:22.595Z,100541.56
2023-05-10T14:10:51.639Z,100538.00
2023-05-10T14:13:19.565Z,100540.00
2023-05-10T14:15:47.498Z,100537.19
2023-05-10T14:18:16.858Z,100533.69
2023-05-10T14:20:44.842Z,100531.59
2023-05-10T14:23:13.382Z,100535.88
2023-05-10T14:25:42.205Z,100531.56
2023-05-10T14:28:10.265Z,100529.63
2023-05-10T14:30:38.351Z,100523.22
2023-05-10T14:33:08.278Z,100537.59
2023-05-10T14:35:38.610Z,100528.88
2023-05-10T14:38:06.639Z,100528.97
2023-05-10T14:40:34.648Z,100524.16
2023-05-10T14:43:02.678Z,100527.84
2023-05-10T14:45:30.848Z,100523.56
2023-05-10T14:48:00.125Z,100531.56
2023-05-10T14:50:36.537Z,100524.34
2023-05-10T14:53:06.614Z,100524.50
2023-05-10T14:55:35.663Z,100522.03
2023-05-10T14:58:04.339Z,100525.16
2023-05-10T15:00:33.616Z,100526.50
2023-05-10T15:03:02.344Z,100526.56
2023-05-10T15:05:30.908Z,100531.59
2023-05-10T15:07:59.522Z,100532.06
2023-05-10T15:10:28.835Z,100526.78
2023-05-10T15:12:57.050Z,100532.75
2023-05-10T15:15:25.119Z,100533.78
2023-05-10T15:17:53.124Z,100534.88
2023-05-10T15:20:21.132Z,100543.81
2023-05-10T15:22:49.077Z,100537.63
2023-05-10T15:25:17.385Z,100534.84
2023-05-10T15:27:47.571Z,100534.03
2023-05-10T15:30:15.973Z,100534.03
2023-05-10T15:32:44.089Z,100534.84
2023-05-10T15:35:12.631Z,100533.84
2023-05-10T15:37:40.553Z,100537.44
2023-05-10T15:40:09.232Z,100531.72
2023-05-10T15:42:37.150Z,100531.38
2023-05-10T15:45:10.035Z,100532.41
2023-05-10T15:47:40.115Z,100532.50
2023-05-10T15:50:08.536Z,100518.94
2023-05-10T15:52:37.063Z,100532.53
2023-05-10T15:55:12.469Z,100535.50
2023-05-10T15:57:41.603Z,100532.53
2023-05-10T16:00:13.193Z,100538.09
2023-05-10T16:02:41.405Z,100540.34
2023-05-10T16:05:10.817Z,100541.91
2023-05-10T16:07:42.053Z,100547.22
2023-05-10T16:10:11.748Z,100541.03
2023-05-10T16:12:40.112Z,100549.44
2023-05-10T16:15:09.882Z,100542.31
2023-05-10T16:17:39.320Z,100548.22
2023-05-10T16:20:08.679Z,100547.16
2023-05-10T16:22:36.781Z,100557.88
2023-05-10T16:25:05.259Z,100551.00
2023-05-10T16:27:33.461Z,100556.78
2023-05-10T16:30:01.657Z,100558.47
2023-05-10T16:32:29.805Z,100559.78
2023-05-10T16:35:00.126Z,100561.59
2023-05-10T16:37:28.639Z,100553.88
2023-05-10T16:39:56.571Z,100561.72
2023-05-10T16:42:25.980Z,100564.75
2023-05-10T16:44:55.395Z,100567.97
2023-05-10T16:47:26.475Z,100573.78
2023-05-10T16:49:54.410Z,100574.63
2023-05-10T16:52:23.814Z,100572.72
2023-05-10T16:54:51.739Z,100578.28
2023-05-10T16:57:19.711Z,100579.84
2023-05-10T16:59:47.986Z,100583.59
2023-05-10T17:02:16.845Z,100586.44
2023-05-10T17:04:44.769Z,100586.59
2023-05-10T17:07:13.169Z,100594.50
2023-05-10T17:09:43.301Z,100592.88
2023-05-10T17:12:12.471Z,100590.56
2023-05-10T17:14:40.977Z,100593.19
2023-05-10T17:17:10.670Z,100602.06
2023-05-10T17:19:38.565Z,100611.00
2023-05-10T17:22:06.591Z,100608.09
2023-05-10T17:24:34.504Z,100607.16
2023-05-10T17:27:04.358Z,100611.88
2023-05-10T17:29:32.509Z,100615.00
2023-05-10T17:32:00.763Z,100618.31
2023-05-10T17:34:28.938Z,100609.25
2023-05-10T17:36:57.379Z,100626.19
2023-05-10T17:39:25.340Z,100629.44
2023-05-10T17:41:53.258Z,100633.88
2023-05-10T17:44:22.904Z,100628.38
2023-05-10T17:46:50.840Z,100637.09
2023-05-10T17:49:18.843Z,100634.88
2023-05-10T17:51:48.018Z,100639.66
2023-05-10T17:54:16.218Z,100640.31
2023-05-10T17:56:44.154Z,100642.50
2023-05-10T17:59:12.145Z,100644.91
2023-05-10T18:01:41.668Z,100643.09
2023-05-10T18:04:09.694Z,100649.13
2023-05-10T18:06:38.125Z,100656.22
2023-05-10T18:09:07.262Z,100652.38
2023-05-10T18:11:36.774Z,100655.44
2023-05-10T18:14:04.947Z,100655.03
2023-05-10T18:16:32.904Z,100658.28
2023-05-10T18:19:02.351Z,100665.91
2023-05-10T18:21:31.256Z,100663.69
2023-05-10T18:23:59.219Z,100677.19
2023-05-10T18:26:27.731Z,100669.47
2023-05-10T18:28:55.673Z,100675.25
2023-05-10T18:31:23.982Z,100681.94
2023-05-10T18:33:52.246Z,100680.50
2023-05-10T18:36:23.637Z,100683.50
2023-05-10T18:38:51.589Z,100685.47
2023-05-10T18:41:19.608Z,100692.03
2023-05-10T18:43:47.570Z,100702.22
2023-05-10T18:46:16.022Z,100697.06
2023-05-10T18:48:44.058Z,100701.59
2023-05-10T18:51:12.470Z,100705.56
2023-05-10T18:53:41.892Z,100705.44
2023-05-10T18:56:10.025Z,100706.09
2023-05-10T18:58:38.362Z,100717.00
2023-05-10T19:01:06.446Z,100716.63
2023-05-10T19:03:34.360Z,100716.53
2023-05-10T19:06:02.330Z,100716.16
2023-05-10T19:08:30.383Z,100732.16
2023-05-10T19:10:59.766Z,100734.19
2023-05-10T19:13:30.212Z,100732.22
2023-05-10T19:16:05.909Z,100736.03
2023-05-10T19:18:34.386Z,100737.69
2023-05-10T19:21:04.513Z,100739.88
2023-05-10T19:23:33.104Z,100742.38
2023-05-10T19:26:02.700Z,100743.38
2023-05-10T19:28:30.681Z,100745.69
2023-05-10T19:30:58.846Z,100746.53
2023-05-10T19:33:26.901Z,100746.19
2023-05-10T19:35:56.304Z,100748.59
2023-05-10T19:38:25.109Z,100750.59
2023-05-10T19:40:57.918Z,100750.22
2023-05-10T19:43:28.274Z,100754.06
2023-05-10T19:45:56.708Z,100749.56
2023-05-10T19:48:24.742Z,100758.19
2023-05-10T19:50:52.852Z,100757.00
2023-05-10T19:53:21.526Z,100759.41
2023-05-10T19:55:49.602Z,100761.16
2023-05-10T19:58:17.852Z,100762.94
2023-05-10T20:00:47.260Z,100755.25
2023-05-10T20:03:15.311Z,100758.72
2023-05-10T20:05:43.294Z,100760.41
2023-05-10T20:08:11.496Z,100764.34
2023-05-10T20:10:39.481Z,100764.31
2023-05-10T20:13:07.752Z,100765.66
2023-05-10T20:15:35.766Z,100765.28
2023-05-10T20:18:05.473Z,100770.59
2023-05-10T20:20:33.459Z,100765.56
2023-05-10T20:23:01.494Z,100765.56
2023-05-10T20:25:29.671Z,100778.88
2023-05-10T20:27:57.757Z,100772.13
2023-05-10T20:30:25.736Z,100773.50
2023-05-10T20:32:53.812Z,100774.06
2023-05-10T20:35:25.648Z,100780.63
2023-05-10T20:37:53.912Z,100777.81
2023-05-10T20:40:22.031Z,100777.28
2023-05-10T20:42:51.983Z,100780.53
2023-05-10T20:45:20.003Z,100779.19
2023-05-10T20:47:48.104Z,100775.13
2023-05-10T20:50:16.305Z,100777.28
2023-05-10T20:52:45.731Z,100782.94
2023-05-10T20:55:13.617Z,100773.41
2023-05-10T20:57:41.613Z,100777.66
2023-05-10T21:00:10.714Z,100780.56
2023-05-10T21:02:38.693Z,100776.31
2023-05-10T21:05:07.489Z,100777.72
2023-05-10T21:07:35.391Z,100780.16
2023-05-10T21:10:05.097Z,100784.22
2023-05-10T21:12:33.179Z,100785.38
2023-05-10T21:15:01.201Z,100788.88
2023-05-10T21:17:35.909Z,100794.56
2023-05-10T21:20:10.161Z,100796.78
2023-05-10T21:22:47.516Z,100791.84
2023-05-10T21:25:42.371Z,100794.72
2023-05-10T21:28:18.752Z,100798.16
2023-05-10T21:31:08.786Z,100798.34
2023-05-10T21:33:41.918Z,100790.66
2023-05-10T21:36:10.075Z,100789.47
2023-05-10T21:38:38.126Z,100797.38
2023-05-10T21:41:09.697Z,100793.66
2023-05-10T21:43:37.832Z,100794.31
2023-05-10T21:46:07.160Z,100804.00
2023-05-10T21:48:35.268Z,100802.75
2023-05-10T21:51:03.559Z,100800.69
2023-05-10T21:53:31.690Z,100803.78
2023-05-10T21:55:59.561Z,100800.59
2023-05-10T21:58:29.939Z,100804.38
2023-05-10T22:00:57.968Z,100802.31
2023-05-10T22:03:26.425Z,100807.06
2023-05-10T22:05:54.385Z,100813.88
2023-05-10T22:08:22.356Z,100812.75
2023-05-10T22:10:50.328Z,100812.47
2023-05-10T22:13:18.293Z,100808.69
2023-05-10T22:15:47.687Z,100814.13
2023-05-10T22:18:15.607Z,100818.31
2023-05-10T22:20:46.372Z,100815.97
2023-05-10T22:23:14.450Z,100812.47
2023-05-10T22:25:42.595Z,100822.53
2023-05-10T22:28:11.445Z,100820.72
2023-05-10T22:30:39.404Z,100811.53
2023-05-10T22:33:08.724Z,100813.09
2023-05-10T22:35:36.825Z,100822.72
2023-05-10T22:38:04.965Z,100816.56
2023-05-10T22:40:33.029Z,100819.91
2023-05-10T22:43:03.652Z,100824.09
2023-05-10T22:45:32.443Z,100823.13
2023-05-10T22:48:05.051Z,100818.50
2023-05-10T22:50:36.768Z,100818.78
2023-05-10T22:53:04.966Z,100823.50
2023-05-10T22:55:33.030Z,100820.19
2023-05-10T22:58:01.030Z,100814.03
2023-05-10T23:00:28.917Z,100819.22
2023-05-10T23:02:57.440Z,100822.69
2023-05-10T23:05:25.358Z,100822.38
2023-05-10T23:07:55.631Z,100820.16
2023-05-10T23:10:23.767Z,100816.38
2023-05-10T23:12:51.669Z,100812.63
2023-05-10T23:15:19.747Z,100817.91
2023-05-10T23:17:47.699Z,100823.19
2023-05-10T23:20:16.168Z,100819.56
2023-05-10T23:22:44.864Z,100823.03
2023-05-10T23:25:14.555Z,100821.91
2023-05-10T23:27:42.608Z,100820.38
2023-05-10T23:30:11.504Z,100815.50
2023-05-10T23:32:39.552Z,100823.56
2023-05-10T23:35:08.857Z,100830.00
2023-05-10T23:37:37.783Z,100832.91
2023-05-10T23:40:06.673Z,100830.22
2023-05-10T23:42:36.679Z,100825.53
2023-05-10T23:45:05.167Z,100826.78
2023-05-10T23:47:33.125Z,100828.56
2023-05-10T23:50:01.426Z,100826.44
2023-05-10T23:52:29.382Z,100825.50
2023-05-10T23:54:57.418Z,100823.28
2023-05-10T23:57:25.705Z,100826.16
2023-05-10T23:59:55.322Z,100827.25
